WeatherOLA & Area Weather Station Summaries and History

Weather history for Indianola, Kingston, Poulsbo, Bainbridge Island, Silverdale other area weather stations. Select a station for detailed historical weather information of any date and time in five minute intervals. Great for looking up the timing of interesting weather events that are closest to you.

Station Historical Data
 
Daily Summary for January 19, 2018 Units:  English    Metric   Both
« Previous Day
Next Day »
Daily Weekly Monthly Yearly Custom
  Current: High: Low: Average:
Temperature: 45.9 °F 46 °F 40.5 °F 42.8 °F
Dew Point: 41.9 °F 44.1 °F 39.7 °F 41.4 °F
Humidity: 86% 97% 84% 95%
Wind Speed: 4.6mph 11.5mph 0mph 3mph
Wind Gust: 4.6mph 11.5mph - -
WindSSW - - SSW
Pressure: 29.8 in 29.9 in 29.8 in -
Precipitation: 0 in      
Historical Graphs
 
 
Tabular Data for January 19, 2018
Time Temperature Dew Point Pressure Wind Wind Speed Wind Gust Humidity Rainfall Rate (Hourly) solar Conditions
00:03 41.4 °F 40.5 °F 29.8 in South 1.2 mph 1.2 mph 97% 0 in WeatherDisplay:10.37 W/m2 RA
00:08 41.4 °F 40.5 °F 29.8 in Calm     97% 0 in WeatherDisplay:10.37 W/m2 RA
00:13 41.4 °F 40.5 °F 29.8 in SSE 1.2 mph   97% 0 in WeatherDisplay:10.37 W/m2 CLR
00:18 41.4 °F 40.5 °F 29.8 in Calm     97% 0 in WeatherDisplay:10.37 W/m2 CLR
00:23 41.4 °F 40.5 °F 29.8 in Calm     97% 0 in WeatherDisplay:10.37 W/m2 CLR
00:28 41.2 °F 40.5 °F 29.8 in SSE 2.3 mph 2.3 mph 97% 0 in WeatherDisplay:10.37 W/m2 CLR
00:33 41.2 °F 40.5 °F 29.8 in SSE 1.2 mph 1.2 mph 97% 0 in WeatherDisplay:10.37 W/m2 CLR
00:38 41.2 °F 40.5 °F 29.8 in WNW 1.2 mph 1.2 mph 97% 0 in WeatherDisplay:10.37 W/m2 CLR
00:43 41.2 °F 40.3 °F 29.8 in SSE 1.2 mph   97% 0 in WeatherDisplay:10.37 W/m2 CLR
00:48 41 °F 40.3 °F 29.8 in South 1.2 mph   97% 0 in WeatherDisplay:10.37 W/m2 CLR
00:53 41 °F 40.3 °F 29.8 in South 1 mph 1 mph 97% 0 in WeatherDisplay:10.37 W/m2 CLR
00:58 40.8 °F 40.1 °F 29.8 in Calm     97% 0 in WeatherDisplay:10.37 W/m2 CLR
01:03 40.8 °F 40.1 °F 29.8 in Calm     97% 0 in WeatherDisplay:10.37 W/m2 CLR
01:08 40.8 °F 40.1 °F 29.8 in Calm     97% 0 in WeatherDisplay:10.37 W/m2 CLR
01:13 41 °F 40.3 °F 29.8 in Calm     97% 0 in WeatherDisplay:10.37 W/m2 CLR
01:18 41 °F 40.3 °F 29.8 in South 2.3 mph 2.3 mph 97% 0 in WeatherDisplay:10.37 W/m2 CLR
01:23 41 °F 40.3 °F 29.8 in SSW 1.2 mph   97% 0 in WeatherDisplay:10.37 W/m2 CLR
01:28 41 °F 40.3 °F 29.8 in SSE 2.3 mph 2.3 mph 97% 0 in WeatherDisplay:10.37 W/m2 CLR
01:33 41 °F 40.3 °F 29.8 in SSE 1.2 mph   97% 0 in WeatherDisplay:10.37 W/m2 CLR
01:38 41 °F 40.3 °F 29.8 in Calm   0.7 mph 97% 0 in WeatherDisplay:10.37 W/m2 CLR
01:43 41 °F 40.3 °F 29.8 in NE 1.2 mph   97% 0 in WeatherDisplay:10.37 W/m2 CLR
01:48 41 °F 40.3 °F 29.8 in WSW 3.5 mph 3.5 mph 97% 0 in WeatherDisplay:10.37 W/m2 CLR
01:53 41 °F 40.3 °F 29.8 in SW 3.5 mph 3.5 mph 97% 0 in WeatherDisplay:10.37 W/m2 CLR
01:58 41.2 °F 40.3 °F 29.8 in Calm   0.2 mph 97% 0 in WeatherDisplay:10.37 W/m2 CLR
02:03 41.2 °F 40.5 °F 29.8 in NNE 1.2 mph 1.2 mph 97% 0 in WeatherDisplay:10.37 W/m2 CLR
02:08 41.2 °F 40.5 °F 29.8 in SSW 1.2 mph 1.2 mph 97% 0 in WeatherDisplay:10.37 W/m2 CLR
02:13 41.2 °F 40.3 °F 29.8 in South 1.2 mph 1.2 mph 97% 0 in WeatherDisplay:10.37 W/m2 CLR
02:18 41.2 °F 40.3 °F 29.8 in South 1.2 mph   97% 0 in WeatherDisplay:10.37 W/m2 CLR
02:23 41 °F 40.3 °F 29.8 in South 2.3 mph 2.3 mph 97% 0 in WeatherDisplay:10.37 W/m2 CLR
02:28 40.8 °F 40.1 °F 29.8 in SSE 1.2 mph 1.2 mph 97% 0 in WeatherDisplay:10.37 W/m2 CLR
02:33 40.8 °F 40.1 °F 29.8 in SSE 2.3 mph 2.3 mph 97% 0 in WeatherDisplay:10.37 W/m2 CLR
02:38 40.8 °F 40.1 °F 29.8 in SSE 2.3 mph 2.3 mph 97% 0 in WeatherDisplay:10.37 W/m2 CLR
02:43 40.8 °F 40.1 °F 29.8 in SSE 1.2 mph   97% 0 in WeatherDisplay:10.37 W/m2 CLR
02:48 40.6 °F 39.9 °F 29.8 in Calm     97% 0 in WeatherDisplay:10.37 W/m2 CLR
02:53 40.6 °F 39.9 °F 29.8 in Calm     97% 0 in WeatherDisplay:10.37 W/m2 CLR
02:58 40.6 °F 39.7 °F 29.8 in Calm     97% 0 in WeatherDisplay:10.37 W/m2 CLR
03:03 40.6 °F 39.7 °F 29.8 in SSE 1.2 mph   97% 0 in WeatherDisplay:10.37 W/m2 CLR
03:08 40.6 °F 39.7 °F 29.8 in Calm     97% 0 in WeatherDisplay:10.37 W/m2 CLR
03:13 40.6 °F 39.7 °F 29.8 in Calm     97% 0 in WeatherDisplay:10.37 W/m2 CLR
03:18 40.5 °F 39.7 °F 29.8 in West 1.2 mph 1.2 mph 97% 0 in WeatherDisplay:10.37 W/m2 CLR
03:23 40.6 °F 39.7 °F 29.8 in Calm     97% 0 in WeatherDisplay:10.37 W/m2 CLR
03:28 40.6 °F 39.7 °F 29.8 in Calm     97% 0 in WeatherDisplay:10.37 W/m2 CLR
03:33 40.6 °F 39.9 °F 29.8 in WSW 1.2 mph   97% 0 in WeatherDisplay:10.37 W/m2 CLR
03:38 40.8 °F 39.9 °F 29.8 in WSW 1.2 mph 1.2 mph 97% 0 in WeatherDisplay:10.37 W/m2 CLR
03:43 40.8 °F 40.1 °F 29.8 in Calm   0.1 mph 97% 0 in WeatherDisplay:10.37 W/m2 CLR
03:48 41 °F 40.3 °F 29.8 in WSW 1.2 mph 1.2 mph 97% 0 in WeatherDisplay:10.37 W/m2 CLR
03:53 41 °F 40.3 °F 29.8 in WSW 2.3 mph 2.3 mph 97% 0 in WeatherDisplay:10.37 W/m2 CLR
03:58 41.2 °F 40.3 °F 29.8 in Calm     97% 0 in WeatherDisplay:10.37 W/m2 CLR
04:03 41.2 °F 40.3 °F 29.8 in South 5 mph 5 mph 97% 0 in WeatherDisplay:10.37 W/m2 CLR
04:08 41.2 °F 40.5 °F 29.8 in SW 1.2 mph   97% 0 in WeatherDisplay:10.37 W/m2 CLR
04:13 41.2 °F 40.5 °F 29.8 in SW 1.2 mph 1.2 mph 97% 0 in WeatherDisplay:10.37 W/m2 CLR
04:18 41.2 °F 40.5 °F 29.8 in NNW 2.3 mph   97% 0 in WeatherDisplay:10.37 W/m2 CLR
04:23 41.2 °F 40.5 °F 29.8 in SSE 3.5 mph 3.5 mph 97% 0 in WeatherDisplay:10.37 W/m2 CLR
04:28 41.2 °F 40.5 °F 29.8 in SSE 1.2 mph   97% 0 in WeatherDisplay:10.37 W/m2 CLR
04:33 41.2 °F 40.5 °F 29.8 in Calm   0.1 mph 97% 0 in WeatherDisplay:10.37 W/m2 CLR
04:39 41.4 °F 40.5 °F 29.8 in SSE 1.2 mph 1.2 mph 97% 0 in WeatherDisplay:10.37 W/m2 CLR
04:44 41.4 °F 40.5 °F 29.8 in South 1.2 mph 1.2 mph 97% 0 in WeatherDisplay:10.37 W/m2 CLR
04:49 41.4 °F 40.5 °F 29.8 in Calm     97% 0 in WeatherDisplay:10.37 W/m2 CLR
04:54 41.4 °F 40.6 °F 29.8 in WSW 1 mph   97% 0 in WeatherDisplay:10.37 W/m2 CLR
04:59 41.4 °F 40.6 °F 29.8 in SE 1.2 mph 1.2 mph 97% 0 in WeatherDisplay:10.37 W/m2 CLR
05:04 41.5 °F 40.6 °F 29.8 in SSW 1.2 mph 1.2 mph 97% 0 in WeatherDisplay:10.37 W/m2 CLR
05:09 41.5 °F 40.6 °F 29.8 in SW 3 mph 3 mph 97% 0 in WeatherDisplay:10.37 W/m2 CLR
05:14 41.5 °F 40.8 °F 29.8 in SW 1.2 mph 1.2 mph 97% 0 in WeatherDisplay:10.37 W/m2 CLR
05:19 41.5 °F 40.8 °F 29.8 in SSW 2.3 mph 2.3 mph 97% 0 in WeatherDisplay:10.37 W/m2 CLR
05:24 41.5 °F 40.8 °F 29.8 in WNW 2.3 mph 2.3 mph 97% 0 in WeatherDisplay:10.37 W/m2 CLR
05:29 41.5 °F 40.8 °F 29.8 in NW 2.3 mph 2.3 mph 97% 0 in WeatherDisplay:10.37 W/m2 CLR
05:34 41.5 °F 40.8 °F 29.8 in NW 2.3 mph 2.3 mph 97% 0 in WeatherDisplay:10.37 W/m2 CLR
05:39 41.5 °F 40.8 °F 29.8 in NW 2.3 mph 2.3 mph 97% 0 in WeatherDisplay:10.37 W/m2 CLR
05:44 41.7 °F 40.8 °F 29.8 in NW 1.2 mph   97% 0 in WeatherDisplay:10.37 W/m2 CLR
05:49 41.7 °F 40.8 °F 29.8 in WSW 1.2 mph 1.2 mph 97% 0 in WeatherDisplay:10.37 W/m2 CLR
05:54 41.7 °F 40.8 °F 29.8 in SE 2 mph 2 mph 97% 0 in WeatherDisplay:10.37 W/m2 CLR
05:59 41.7 °F 40.8 °F 29.8 in East 3.5 mph 3.5 mph 97% 0 in WeatherDisplay:10.37 W/m2 CLR
06:04 41.7 °F 41 °F 29.8 in SW 2.3 mph 2.3 mph 97% 0 in WeatherDisplay:10.37 W/m2 CLR
06:09 41.7 °F 41 °F 29.8 in SSW 1.2 mph 1.2 mph 97% 0 in WeatherDisplay:10.37 W/m2 CLR
06:14 41.7 °F 41 °F 29.8 in SE 1.2 mph 1.2 mph 97% 0 in WeatherDisplay:10.37 W/m2 CLR
06:19 41.7 °F 41 °F 29.8 in WNW 3.5 mph 3.5 mph 97% 0 in WeatherDisplay:10.37 W/m2 CLR
06:24 41.7 °F 41 °F 29.8 in SSW 4.6 mph 4.6 mph 97% 0 in WeatherDisplay:10.37 W/m2 CLR
06:29 41.7 °F 41 °F 29.8 in WSW 2.3 mph   97% 0 in WeatherDisplay:10.37 W/m2 CLR
06:34 41.9 °F 41.2 °F 29.8 in WSW 2.3 mph 2.3 mph 97% 0 in WeatherDisplay:10.37 W/m2 CLR
06:39 41.9 °F 41.2 °F 29.8 in SW 6.9 mph 6.9 mph 97% 0 in WeatherDisplay:10.37 W/m2 CLR
06:44 41.9 °F 41.2 °F 29.8 in NNE 4 mph 4 mph 97% 0 in WeatherDisplay:10.37 W/m2 CLR
06:49 41.9 °F 41.2 °F 29.8 in SSW 3.5 mph 3.5 mph 97% 0 in WeatherDisplay:10.37 W/m2 CLR
06:54 42.1 °F 41.2 °F 29.8 in West 2.3 mph   97% 0 in WeatherDisplay:10.37 W/m2 CLR
06:59 42.1 °F 41.2 °F 29.8 in SE 2.3 mph 2.3 mph 97% 0 in WeatherDisplay:10.37 W/m2 CLR
07:04 42.1 °F 41.2 °F 29.8 in SW 2.3 mph 2.3 mph 97% 0 in WeatherDisplay:10.37 W/m2 CLR
07:09 42.1 °F 41.2 °F 29.8 in WSW 1.2 mph   97% 0 in WeatherDisplay:10.37 W/m2 CLR
07:14 42.1 °F 41.2 °F 29.8 in SSW 1.2 mph 1.2 mph 97% 0 in WeatherDisplay:10.37 W/m2 CLR
07:19 42.1 °F 41.2 °F 29.8 in WNW 1.2 mph 1.2 mph 97% 0 in WeatherDisplay:10.37 W/m2 CLR
07:24 42.1 °F 41.2 °F 29.8 in NNW 1.2 mph   97% 0 in WeatherDisplay:10.37 W/m2 CLR
07:29 42.1 °F 41.2 °F 29.8 in Calm     97% 0 in WeatherDisplay:10.37 W/m2 CLR
07:34 41.9 °F 41.2 °F 29.8 in South 3.5 mph 3.5 mph 97% 0 in WeatherDisplay:10.37 W/m2 CLR
07:39 41.9 °F 41.2 °F 29.8 in NE 3.5 mph 3.5 mph 97% 0 in WeatherDisplay:10.37 W/m2 CLR
07:44 41.9 °F 41.2 °F 29.8 in ENE 3.5 mph 3.5 mph 97% 0 in WeatherDisplay:10.37 W/m2 CLR
07:49 41.9 °F 41.2 °F 29.8 in SW 3.5 mph 3.5 mph 97% 0 in WeatherDisplay:10.37 W/m2 CLR
07:54 41.7 °F 41 °F 29.8 in SE 1.2 mph   97% 0 in WeatherDisplay:10.37 W/m2 CLR
07:59 41.7 °F 40.8 °F 29.8 in SSW 4.6 mph 4.6 mph 97% 0 in WeatherDisplay:10.37 W/m2 CLR
08:04 41.7 °F 40.8 °F 29.8 in WSW 3.5 mph 3.5 mph 97% 0 in WeatherDisplay:10.37 W/m2 CLR
08:09 41.7 °F 40.8 °F 29.8 in SW 2.3 mph 2.3 mph 97% 0 in WeatherDisplay:10.37 W/m2 CLR
08:14 41.7 °F 41 °F 29.8 in SSW 4 mph 4 mph 97% 0 in WeatherDisplay:10.37 W/m2 CLR
08:19 41.7 °F 41 °F 29.8 in West 4.6 mph 4.6 mph 97% 0 in WeatherDisplay:10.37 W/m2 CLR
08:24 41.9 °F 41.2 °F 29.8 in SSW 2.3 mph 2.3 mph 97% 0 in WeatherDisplay:10.37 W/m2 CLR
08:29 41.9 °F 41.2 °F 29.8 in ENE 4.6 mph 4.6 mph 97% 0 in WeatherDisplay:10.37 W/m2 CLR
08:34 41.9 °F 41.2 °F 29.8 in SSW 4.6 mph 4.6 mph 97% 0 in WeatherDisplay:10.37 W/m2 CLR
08:39 41.9 °F 41.2 °F 29.8 in SSE 3.5 mph 3.5 mph 97% 0 in WeatherDisplay:10.37 W/m2 CLR
08:44 41.9 °F 41.2 °F 29.8 in South 3.5 mph 3.5 mph 97% 0 in WeatherDisplay:10.37 W/m2 CLR
08:49 41.9 °F 41.2 °F 29.8 in South 2.3 mph   97% 0 in WeatherDisplay:10.37 W/m2 CLR
08:54 42.1 °F 41.2 °F 29.8 in SE 4 mph 4 mph 97% 0 in WeatherDisplay:10.37 W/m2 CLR
08:59 42.1 °F 41.4 °F 29.8 in NW 4 mph 4 mph 97% 0 in WeatherDisplay:10.37 W/m2 CLR
09:04 42.3 °F 41.4 °F 29.8 in South 3.5 mph 3.5 mph 97% 0 in WeatherDisplay:10.37 W/m2 CLR
09:09 42.3 °F 41.4 °F 29.8 in ENE 5.8 mph 5.8 mph 97% 0 in WeatherDisplay:10.37 W/m2 CLR
09:14 42.3 °F 41.5 °F 29.8 in SSW 5.8 mph 5.8 mph 97% 0 in WeatherDisplay:10.37 W/m2 CLR
09:19 42.4 °F 41.5 °F 29.8 in SW 1.2 mph 1.2 mph 97% 0 in WeatherDisplay:10.37 W/m2 CLR
09:24 42.4 °F 41.7 °F 29.8 in SW 2.3 mph 2.3 mph 97% 0 in WeatherDisplay:10.37 W/m2 CLR
09:29 42.4 °F 41.7 °F 29.8 in North 4.6 mph 4.6 mph 97% 0 in WeatherDisplay:10.37 W/m2 CLR
09:34 42.6 °F 41.7 °F 29.8 in NNW 1.2 mph 1.2 mph 97% 0 in WeatherDisplay:10.37 W/m2 CLR
09:39 42.6 °F 41.7 °F 29.8 in SW 3.5 mph 3.5 mph 97% 0 in WeatherDisplay:10.37 W/m2 CLR
09:44 42.8 °F 42.1 °F 29.8 in SW 4.6 mph 4.6 mph 97% 0 in WeatherDisplay:10.37 W/m2 CLR
09:49 42.8 °F 42.1 °F 29.8 in WNW 3.5 mph 3.5 mph 97% 0 in WeatherDisplay:10.37 W/m2 CLR
09:54 43 °F 42.3 °F 29.8 in NW 2.3 mph 2.3 mph 97% 0 in WeatherDisplay:10.37 W/m2 CLR
09:59 43.3 °F 42.4 °F 29.8 in West 2 mph 2 mph 97% 0 in WeatherDisplay:10.37 W/m2 CLR
10:04 43.3 °F 42.4 °F 29.8 in SW 2.3 mph 2.3 mph 97% 0 in WeatherDisplay:10.37 W/m2 CLR
10:09 43.2 °F 42.4 °F 29.8 in South 3.5 mph 3.5 mph 97% 0 in WeatherDisplay:10.37 W/m2 CLR
10:14 43.3 °F 42.6 °F 29.8 in SW 3.5 mph 3.5 mph 97% 0 in WeatherDisplay:10.37 W/m2 CLR
10:20 43.5 °F 42.8 °F 29.8 in NE 3.5 mph 3.5 mph 97% 0 in WeatherDisplay:10.37 W/m2 CLR
10:25 43.7 °F 43 °F 29.8 in NNE 3.5 mph 3.5 mph 97% 0 in WeatherDisplay:10.37 W/m2 CLR
10:30 43.7 °F 43 °F 29.8 in SW 3.5 mph 3.5 mph 97% 0 in WeatherDisplay:10.37 W/m2 CLR
10:35 43.9 °F 43 °F 29.8 in North 3.5 mph 3.5 mph 97% 0 in WeatherDisplay:10.37 W/m2 CLR
10:40 43.9 °F 43 °F 29.8 in WNW 6.9 mph 6.9 mph 97% 0 in WeatherDisplay:10.37 W/m2 CLR
10:45 43.9 °F 43.2 °F 29.9 in West 3.5 mph 3.5 mph 97% 0 in WeatherDisplay:10.37 W/m2 CLR
10:50 44.1 °F 43.2 °F 29.9 in WSW 4.6 mph 4.6 mph 97% 0 in WeatherDisplay:10.37 W/m2 CLR
10:55 44.2 °F 43.3 °F 29.9 in ESE 2.3 mph 2.3 mph 97% 0 in WeatherDisplay:10.37 W/m2 CLR
11:00 44.2 °F 43.5 °F 29.9 in East 3.5 mph 3.5 mph 97% 0 in WeatherDisplay:10.37 W/m2 CLR
11:05 44.4 °F 43.5 °F 29.9 in SE 3.5 mph 3.5 mph 97% 0 in WeatherDisplay:10.37 W/m2 CLR
11:10 44.4 °F 43.7 °F 29.9 in NW 1.2 mph 1.2 mph 97% 0 in WeatherDisplay:10.37 W/m2 CLR
11:15 44.6 °F 43.9 °F 29.9 in East 9.2 mph 9.2 mph 97% 0 in WeatherDisplay:10.37 W/m2 CLR
11:20 44.6 °F 43.9 °F 29.9 in SW 5.8 mph 5.8 mph 97% 0 in WeatherDisplay:10.37 W/m2 CLR
11:25 44.8 °F 43.9 °F 29.9 in SSW 5.8 mph 5.8 mph 97% 0 in WeatherDisplay:10.37 W/m2 CLR
11:30 44.8 °F 43.9 °F 29.9 in SSW 3.5 mph 3.5 mph 97% 0 in WeatherDisplay:10.37 W/m2 CLR
11:35 44.8 °F 43.7 °F 29.8 in SSW 2.3 mph 2.3 mph 96% 0 in WeatherDisplay:10.37 W/m2 CLR
11:40 44.8 °F 44.1 °F 29.8 in West 6.9 mph 6.9 mph 97% 0 in WeatherDisplay:10.37 W/m2 CLR
11:45 44.8 °F 43.7 °F 29.8 in SSW 4 mph 4 mph 96% 0 in WeatherDisplay:10.37 W/m2 CLR
11:50 45 °F 43.9 °F 29.8 in SSW 2.3 mph 2.3 mph 96% 0 in WeatherDisplay:10.37 W/m2 CLR
11:55 45 °F 43.9 °F 29.8 in SSW 4 mph 4 mph 96% 0 in WeatherDisplay:10.37 W/m2 CLR
12:00 45 °F 43.7 °F 29.8 in NW 6.9 mph 6.9 mph 95% 0 in WeatherDisplay:10.37 W/m2 CLR
12:05 45 °F 43.7 °F 29.8 in SSW 3 mph 3 mph 95% 0 in WeatherDisplay:10.37 W/m2 CLR
12:10 45.1 °F 43.5 °F 29.8 in SE 3.5 mph 3.5 mph 94% 0 in WeatherDisplay:10.37 W/m2 CLR
12:15 45.1 °F 43.3 °F 29.8 in SE 3.5 mph 3.5 mph 93% 0 in WeatherDisplay:10.37 W/m2 CLR
12:20 45.3 °F 43.2 °F 29.8 in SW 4.6 mph 4.6 mph 92% 0 in WeatherDisplay:10.37 W/m2 CLR
12:25 45.3 °F 43.2 °F 29.8 in SE 5 mph 5 mph 92% 0 in WeatherDisplay:10.37 W/m2 CLR
12:30 45.3 °F 43 °F 29.8 in South 5.8 mph 5.8 mph 91% 0 in WeatherDisplay:10.37 W/m2 CLR
12:35 45.3 °F 42.3 °F 29.8 in NNW 5.8 mph 5.8 mph 89% 0 in WeatherDisplay:10.37 W/m2 CLR
12:40 45.5 °F 42.4 °F 29.8 in WSW 6.9 mph 6.9 mph 89% 0 in WeatherDisplay:10.37 W/m2 CLR
12:45 45.5 °F 42.4 °F 29.8 in WSW 5.8 mph 5.8 mph 89% 0 in WeatherDisplay:10.37 W/m2 CLR
12:50 45.5 °F 42.3 °F 29.8 in South 6.9 mph 6.9 mph 88% 0 in WeatherDisplay:10.37 W/m2 CLR
12:55 45.3 °F 42.3 °F 29.8 in SW 4.6 mph 4.6 mph 89% 0 in WeatherDisplay:10.37 W/m2 CLR
13:00 45.3 °F 42.3 °F 29.8 in SW 3.5 mph 3.5 mph 89% 0 in WeatherDisplay:10.37 W/m2 CLR
13:05 45.3 °F 42.1 °F 29.8 in SE 9.2 mph 9.2 mph 88% 0 in WeatherDisplay:10.37 W/m2 CLR
13:10 45.3 °F 42.1 °F 29.8 in SE 9.2 mph 9.2 mph 88% 0 in WeatherDisplay:10.37 W/m2 CLR
13:15 45.5 °F 42.3 °F 29.8 in SSW 5 mph 5 mph 88% 0 in WeatherDisplay:10.37 W/m2 CLR
13:20 45.5 °F 42.3 °F 29.8 in SE 5.8 mph 5.8 mph 88% 0 in WeatherDisplay:10.37 W/m2 CLR
13:25 45.5 °F 42.3 °F 29.8 in North 4.6 mph 4.6 mph 88% 0 in WeatherDisplay:10.37 W/m2 CLR
13:30 45.7 °F 41.7 °F 29.8 in SW 6.9 mph 6.9 mph 86% 0 in WeatherDisplay:10.37 W/m2 CLR
13:35 45.7 °F 41.7 °F 29.8 in SE 4.6 mph 4.6 mph 86% 0 in WeatherDisplay:10.37 W/m2 CLR
13:40 45.9 °F 42.3 °F 29.8 in SW 4 mph 4 mph 87% 0 in WeatherDisplay:10.37 W/m2 CLR
13:45 45.9 °F 42.3 °F 29.8 in ESE 4.6 mph 4.6 mph 87% 0 in WeatherDisplay:10.37 W/m2 CLR
13:50 45.9 °F 42.3 °F 29.8 in South 3.5 mph 3.5 mph 87% 0 in WeatherDisplay:10.37 W/m2 CLR
13:55 45.9 °F 41.9 °F 29.8 in South 5.8 mph 5.8 mph 86% 0 in WeatherDisplay:10.37 W/m2 CLR
14:00 45.9 °F 41.9 °F 29.8 in South 11.5 mph 11.5 mph 86% 0 in WeatherDisplay:10.37 W/m2 CLR
14:05 45.9 °F 41.5 °F 29.8 in SSW 11.5 mph 11.5 mph 85% 0 in WeatherDisplay:10.37 W/m2 CLR
14:10 45.9 °F 41.9 °F 29.8 in SE 6.9 mph 6.9 mph 86% 0 in WeatherDisplay:10.37 W/m2 CLR
14:15 45.9 °F 42.3 °F 29.8 in East 5.8 mph 5.8 mph 87% 0 in WeatherDisplay:10.37 W/m2 CLR
14:20 45.9 °F 42.3 °F 29.8 in SW 3 mph 3 mph 87% 0 in WeatherDisplay:10.37 W/m2 CLR
14:25 45.9 °F 41.9 °F 29.8 in WSW 6.9 mph 6.9 mph 86% 0 in WeatherDisplay:10.37 W/m2 CLR
14:30 45.9 °F 42.3 °F 29.8 in South 6 mph 6 mph 87% 0 in WeatherDisplay:10.37 W/m2 CLR
14:35 45.9 °F 42.3 °F 29.8 in SSE 4 mph 4 mph 87% 0 in WeatherDisplay:10.37 W/m2 CLR
14:40 45.9 °F 41.9 °F 29.8 in WSW 4.6 mph 4.6 mph 86% 0 in WeatherDisplay:10.37 W/m2 CLR
14:45 45.9 °F 41.9 °F 29.8 in West 3.5 mph 3.5 mph 86% 0 in WeatherDisplay:10.37 W/m2 CLR
14:50 45.9 °F 41.9 °F 29.8 in WNW 4.6 mph 4.6 mph 86% 0 in WeatherDisplay:10.37 W/m2 CLR
14:55 45.9 °F 41.9 °F 29.8 in NNW 3.5 mph 3.5 mph 86% 0 in WeatherDisplay:10.37 W/m2 CLR
15:00 46 °F 41.4 °F 29.8 in South 5.8 mph 5.8 mph 84% 0 in WeatherDisplay:10.37 W/m2 CLR
15:05 46 °F 41.7 °F 29.8 in SSW 11.5 mph 11.5 mph 85% 0 in WeatherDisplay:10.37 W/m2 CLR
15:10 46 °F 41.7 °F 29.8 in SW 8 mph 8 mph 85% 0 in WeatherDisplay:10.37 W/m2 CLR
15:15 45.9 °F 41.5 °F 29.8 in West 3.5 mph 3.5 mph 85% 0 in WeatherDisplay:10.37 W/m2 CLR
15:20 45.9 °F 41.9 °F 29.8 in NW 2.3 mph 2.3 mph 86% 0 in WeatherDisplay:10.37 W/m2 CLR
15:25 45.9 °F 41.9 °F 29.8 in WSW 3.5 mph 3.5 mph 86% 0 in WeatherDisplay:10.37 W/m2 CLR
15:30 45.9 °F 41.9 °F 29.8 in SSW 1.2 mph 1.2 mph 86% 0 in WeatherDisplay:10.37 W/m2 CLR
15:35 45.9 °F 41.9 °F 29.8 in SSW 4.6 mph 4.6 mph 86% 0 in WeatherDisplay:10.37 W/m2 CLR
Indianola, WA, USA
Compliments of Weather Underground - 2.5 mb